sensor_id;sensor_type;location;lat;lon;timestamp;pressure;altitude;pressure_sealevel;temperature;humidity
42887;BME280;29032;56.028;92.904;2022-08-16T00:03:24;98476.31;;;11.53;60.41
42887;BME280;29032;56.028;92.904;2022-08-16T00:08:27;98482.06;;;11.55;60.19
42887;BME280;29032;56.028;92.904;2022-08-16T00:13:29;98472.41;;;11.49;60.34
42887;BME280;29032;56.028;92.904;2022-08-16T00:18:32;98478.69;;;11.57;60.66
42887;BME280;29032;56.028;92.904;2022-08-16T00:23:34;98474.44;;;11.56;60.31
42887;BME280;29032;56.028;92.904;2022-08-16T00:28:36;98474.97;;;11.62;60.52
42887;BME280;29032;56.028;92.904;2022-08-16T00:33:40;98480.84;;;11.74;60.65
42887;BME280;29032;56.028;92.904;2022-08-16T00:38:42;98481.59;;;11.74;60.60
42887;BME280;29032;56.028;92.904;2022-08-16T00:43:44;98485.97;;;11.85;60.38
42887;BME280;29032;56.028;92.904;2022-08-16T00:48:48;98489.31;;;11.91;60.07
42887;BME280;29032;56.028;92.904;2022-08-16T00:53:51;98500.44;;;11.91;60.30
42887;BME280;29032;56.028;92.904;2022-08-16T00:58:54;98491.72;;;11.95;60.40
42887;BME280;29032;56.028;92.904;2022-08-16T01:03:59;98494.63;;;12.04;60.00
42887;BME280;29032;56.028;92.904;2022-08-16T01:09:03;98505.94;;;12.06;59.93
42887;BME280;29032;56.028;92.904;2022-08-16T01:14:10;98500.19;;;12.04;59.51
42887;BME280;29032;56.028;92.904;2022-08-16T01:19:25;98506.34;;;12.03;59.78
42887;BME280;29032;56.028;92.904;2022-08-16T01:24:32;98502.13;;;11.94;60.23
42887;BME280;29032;56.028;92.904;2022-08-16T01:29:39;98497.28;;;11.95;59.74
42887;BME280;29032;56.028;92.904;2022-08-16T01:34:42;98509.75;;;12.19;58.59
42887;BME280;29032;56.028;92.904;2022-08-16T01:39:46;98510.81;;;11.98;59.34
42887;BME280;29032;56.028;92.904;2022-08-16T01:44:48;98508.81;;;11.91;59.60
42887;BME280;29032;56.028;92.904;2022-08-16T01:49:50;98520.50;;;11.97;59.20
42887;BME280;29032;56.028;92.904;2022-08-16T01:54:54;98527.91;;;12.02;59.29
42887;BME280;29032;56.028;92.904;2022-08-16T01:59:56;98523.81;;;12.03;59.34
42887;BME280;29032;56.028;92.904;2022-08-16T02:04:59;98526.78;;;12.05;59.19
42887;BME280;29032;56.028;92.904;2022-08-16T02:10:04;98534.63;;;11.99;59.36
42887;BME280;29032;56.028;92.904;2022-08-16T02:15:16;98535.59;;;11.94;59.07
42887;BME280;29032;56.028;92.904;2022-08-16T02:20:19;98535.03;;;11.96;59.36
42887;BME280;29032;56.028;92.904;2022-08-16T02:25:24;98541.63;;;12.08;59.27
42887;BME280;29032;56.028;92.904;2022-08-16T02:30:28;98546.81;;;12.11;59.03
42887;BME280;29032;56.028;92.904;2022-08-16T02:35:30;98555.19;;;12.11;58.49
42887;BME280;29032;56.028;92.904;2022-08-16T02:40:35;98544.50;;;12.25;58.73
42887;BME280;29032;56.028;92.904;2022-08-16T02:45:37;98545.59;;;12.30;58.21
42887;BME280;29032;56.028;92.904;2022-08-16T02:50:39;98544.06;;;12.36;58.55
42887;BME280;29032;56.028;92.904;2022-08-16T02:55:43;98539.72;;;12.43;57.77
42887;BME280;29032;56.028;92.904;2022-08-16T03:00:45;98547.59;;;12.37;58.38
42887;BME280;29032;56.028;92.904;2022-08-16T03:05:48;98549.66;;;12.36;57.98
42887;BME280;29032;56.028;92.904;2022-08-16T03:10:52;98554.47;;;12.36;58.18
42887;BME280;29032;56.028;92.904;2022-08-16T03:15:55;98557.50;;;12.30;58.29
42887;BME280;29032;56.028;92.904;2022-08-16T03:20:57;98552.84;;;12.33;58.23
42887;BME280;29032;56.028;92.904;2022-08-16T03:26:01;98550.56;;;12.39;58.92
42887;BME280;29032;56.028;92.904;2022-08-16T03:31:03;98566.00;;;12.40;58.88
42887;BME280;29032;56.028;92.904;2022-08-16T03:36:07;98543.31;;;12.36;58.73
42887;BME280;29032;56.028;92.904;2022-08-16T03:41:14;98569.03;;;12.59;58.71
42887;BME280;29032;56.028;92.904;2022-08-16T03:46:17;98570.41;;;12.51;58.63
42887;BME280;29032;56.028;92.904;2022-08-16T03:51:19;98579.69;;;12.53;59.21
42887;BME280;29032;56.028;92.904;2022-08-16T03:56:28;98578.53;;;12.56;59.49
42887;BME280;29032;56.028;92.904;2022-08-16T04:01:30;98575.75;;;12.56;59.43
42887;BME280;29032;56.028;92.904;2022-08-16T04:06:33;98588.97;;;12.56;59.56
42887;BME280;29032;56.028;92.904;2022-08-16T04:11:37;98596.59;;;12.55;60.06
42887;BME280;29032;56.028;92.904;2022-08-16T04:16:39;98592.59;;;12.41;60.40
42887;BME280;29032;56.028;92.904;2022-08-16T04:22:03;98601.41;;;12.30;61.24
42887;BME280;29032;56.028;92.904;2022-08-16T04:27:14;98601.06;;;12.26;61.99
42887;BME280;29032;56.028;92.904;2022-08-16T04:32:16;98598.88;;;12.17;61.66
42887;BME280;29032;56.028;92.904;2022-08-16T04:37:20;98600.38;;;12.18;61.63
42887;BME280;29032;56.028;92.904;2022-08-16T04:42:30;98611.88;;;12.22;61.59
42887;BME280;29032;56.028;92.904;2022-08-16T04:47:32;98612.25;;;12.18;62.12
42887;BME280;29032;56.028;92.904;2022-08-16T04:52:36;98620.47;;;12.16;61.72
42887;BME280;29032;56.028;92.904;2022-08-16T04:57:40;98621.22;;;12.17;61.57
42887;BME280;29032;56.028;92.904;2022-08-16T05:02:43;98623.47;;;12.10;62.19
42887;BME280;29032;56.028;92.904;2022-08-16T05:07:45;98629.22;;;12.13;62.37
42887;BME280;29032;56.028;92.904;2022-08-16T05:12:50;98626.44;;;12.13;62.37
42887;BME280;29032;56.028;92.904;2022-08-16T05:17:52;98632.94;;;12.07;62.51
42887;BME280;29032;56.028;92.904;2022-08-16T05:22:55;98634.06;;;12.12;62.02
42887;BME280;29032;56.028;92.904;2022-08-16T05:27:59;98636.06;;;12.19;62.87
42887;BME280;29032;56.028;92.904;2022-08-16T05:33:02;98643.88;;;12.21;63.06
42887;BME280;29032;56.028;92.904;2022-08-16T05:38:05;98638.47;;;12.23;62.03
42887;BME280;29032;56.028;92.904;2022-08-16T05:43:10;98648.34;;;12.24;62.49
42887;BME280;29032;56.028;92.904;2022-08-16T05:48:13;98653.97;;;12.08;62.24
42887;BME280;29032;56.028;92.904;2022-08-16T05:53:30;98658.09;;;12.00;62.48
42887;BME280;29032;56.028;92.904;2022-08-16T05:58:46;98659.19;;;12.04;63.24
42887;BME280;29032;56.028;92.904;2022-08-16T06:03:50;98664.59;;;12.02;62.78
42887;BME280;29032;56.028;92.904;2022-08-16T06:09:02;98668.88;;;12.03;62.37
42887;BME280;29032;56.028;92.904;2022-08-16T06:14:06;98683.16;;;12.07;62.60
42887;BME280;29032;56.028;92.904;2022-08-16T06:19:20;98686.56;;;11.98;63.37
42887;BME280;29032;56.028;92.904;2022-08-16T06:24:35;98688.22;;;11.94;63.70
42887;BME280;29032;56.028;92.904;2022-08-16T06:29:39;98699.03;;;11.97;63.46
42887;BME280;29032;56.028;92.904;2022-08-16T06:34:41;98704.81;;;11.84;64.20
42887;BME280;29032;56.028;92.904;2022-08-16T06:39:46;98706.88;;;11.83;63.67
42887;BME280;29032;56.028;92.904;2022-08-16T06:45:00;98710.53;;;11.94;64.08
42887;BME280;29032;56.028;92.904;2022-08-16T06:50:17;98709.81;;;11.93;64.08
42887;BME280;29032;56.028;92.904;2022-08-16T06:55:22;98712.78;;;11.95;63.46
42887;BME280;29032;56.028;92.904;2022-08-16T07:00:30;98725.44;;;11.96;64.65
42887;BME280;29032;56.028;92.904;2022-08-16T07:05:40;98735.13;;;11.88;64.70
42887;BME280;29032;56.028;92.904;2022-08-16T07:10:46;98731.41;;;11.85;63.59
42887;BME280;29032;56.028;92.904;2022-08-16T07:15:52;98740.72;;;11.80;63.64
42887;BME280;29032;56.028;92.904;2022-08-16T07:20:59;98744.22;;;11.73;64.49
42887;BME280;29032;56.028;92.904;2022-08-16T07:26:02;98747.97;;;11.75;64.39
42887;BME280;29032;56.028;92.904;2022-08-16T07:31:06;98757.81;;;11.76;65.68
42887;BME280;29032;56.028;92.904;2022-08-16T07:36:13;98752.41;;;11.78;65.57
42887;BME280;29032;56.028;92.904;2022-08-16T07:41:20;98764.13;;;11.84;65.93
42887;BME280;29032;56.028;92.904;2022-08-16T07:46:30;98765.59;;;11.93;65.19
42887;BME280;29032;56.028;92.904;2022-08-16T07:51:35;98773.59;;;11.97;65.39
42887;BME280;29032;56.028;92.904;2022-08-16T07:56:37;98771.00;;;11.91;64.80
42887;BME280;29032;56.028;92.904;2022-08-16T08:01:41;98782.31;;;11.93;65.16
42887;BME280;29032;56.028;92.904;2022-08-16T08:06:44;98783.06;;;11.86;64.83
42887;BME280;29032;56.028;92.904;2022-08-16T08:11:50;98783.28;;;11.80;64.87
42887;BME280;29032;56.028;92.904;2022-08-16T08:16:55;98790.16;;;11.87;65.88
42887;BME280;29032;56.028;92.904;2022-08-16T08:22:04;98784.19;;;11.91;65.45
42887;BME280;29032;56.028;92.904;2022-08-16T08:27:18;98797.41;;;11.90;63.85
42887;BME280;29032;56.028;92.904;2022-08-16T08:32:23;98793.88;;;11.90;65.52
42887;BME280;29032;56.028;92.904;2022-08-16T08:37:25;98793.88;;;11.82;64.91
42887;BME280;29032;56.028;92.904;2022-08-16T08:42:30;98801.69;;;11.83;65.03
42887;BME280;29032;56.028;92.904;2022-08-16T08:47:34;98801.50;;;11.89;65.40
42887;BME280;29032;56.028;92.904;2022-08-16T08:52:36;98796.09;;;11.83;66.11
42887;BME280;29032;56.028;92.904;2022-08-16T08:57:43;98800.94;;;11.91;65.46
42887;BME280;29032;56.028;92.904;2022-08-16T09:03:06;98800.56;;;11.94;65.94
42887;BME280;29032;56.028;92.904;2022-08-16T09:08:12;98807.63;;;11.95;65.81
42887;BME280;29032;56.028;92.904;2022-08-16T09:13:23;98809.66;;;12.02;65.94
42887;BME280;29032;56.028;92.904;2022-08-16T09:18:27;98796.47;;;12.03;64.45
42887;BME280;29032;56.028;92.904;2022-08-16T09:23:30;98803.53;;;11.96;64.06
42887;BME280;29032;56.028;92.904;2022-08-16T09:28:32;98805.03;;;11.90;63.94
42887;BME280;29032;56.028;92.904;2022-08-16T09:33:45;98802.78;;;11.96;64.02
42887;BME280;29032;56.028;92.904;2022-08-16T09:38:47;98803.53;;;11.96;63.99
42887;BME280;29032;56.028;92.904;2022-08-16T09:43:49;98803.16;;;12.00;63.63
42887;BME280;29032;56.028;92.904;2022-08-16T09:48:53;98798.50;;;12.02;62.83
42887;BME280;29032;56.028;92.904;2022-08-16T09:53:55;98802.97;;;12.05;64.46
42887;BME280;29032;56.028;92.904;2022-08-16T09:58:58;98802.38;;;12.15;62.93
42887;BME280;29032;56.028;92.904;2022-08-16T10:04:02;98812.06;;;12.14;62.70
42887;BME280;29032;56.028;92.904;2022-08-16T10:09:07;98808.34;;;12.11;62.78
42887;BME280;29032;56.028;92.904;2022-08-16T10:14:09;98813.75;;;12.09;62.54
42887;BME280;29032;56.028;92.904;2022-08-16T10:19:13;98817.28;;;12.09;61.85
42887;BME280;29032;56.028;92.904;2022-08-16T10:24:15;98817.84;;;12.00;62.48
42887;BME280;29032;56.028;92.904;2022-08-16T10:29:18;98827.72;;;12.01;62.41
42887;BME280;29032;56.028;92.904;2022-08-16T10:34:22;98828.47;;;12.02;61.85
42887;BME280;29032;56.028;92.904;2022-08-16T10:39:24;98827.50;;;11.99;61.82
42887;BME280;29032;56.028;92.904;2022-08-16T10:44:26;98828.25;;;12.00;61.48
42887;BME280;29032;56.028;92.904;2022-08-16T10:49:30;98840.91;;;12.08;61.68
42887;BME280;29032;56.028;92.904;2022-08-16T10:54:33;98822.31;;;12.03;61.61
42887;BME280;29032;56.028;92.904;2022-08-16T10:59:35;98841.63;;;12.17;61.80
42887;BME280;29032;56.028;92.904;2022-08-16T11:04:38;98851.47;;;12.25;61.14
42887;BME280;29032;56.028;92.904;2022-08-16T11:09:40;98848.31;;;12.14;61.52
42887;BME280;29032;56.028;92.904;2022-08-16T11:14:43;98859.50;;;12.14;61.38
42887;BME280;29032;56.028;92.904;2022-08-16T11:19:46;98860.03;;;12.20;62.53
42887;BME280;29032;56.028;92.904;2022-08-16T11:24:48;98861.91;;;12.17;62.26
42887;BME280;29032;56.028;92.904;2022-08-16T11:29:52;98862.09;;;12.19;61.90
42887;BME280;29032;56.028;92.904;2022-08-16T11:34:56;98872.88;;;12.23;62.95
42887;BME280;29032;56.028;92.904;2022-08-16T11:39:58;98869.34;;;12.15;62.98
42887;BME280;29032;56.028;92.904;2022-08-16T11:45:01;98865.28;;;12.16;63.43
42887;BME280;29032;56.028;92.904;2022-08-16T11:50:05;98881.25;;;12.23;61.98
42887;BME280;29032;56.028;92.904;2022-08-16T11:55:10;98882.00;;;12.16;62.57
42887;BME280;29032;56.028;92.904;2022-08-16T12:00:14;98890.91;;;12.14;63.10
42887;BME280;29032;56.028;92.904;2022-08-16T12:05:17;98892.03;;;12.19;62.99
42887;BME280;29032;56.028;92.904;2022-08-16T12:10:22;98887.38;;;12.14;62.67
42887;BME280;29032;56.028;92.904;2022-08-16T12:15:25;98894.28;;;12.05;63.45
42887;BME280;29032;56.028;92.904;2022-08-16T12:20:31;98904.50;;;12.10;63.23
42887;BME280;29032;56.028;92.904;2022-08-16T12:25:34;98897.81;;;12.05;63.27
42887;BME280;29032;56.028;92.904;2022-08-16T12:30:40;98902.47;;;12.10;63.78
42887;BME280;29032;56.028;92.904;2022-08-16T12:35:45;98900.22;;;12.32;61.61
42887;BME280;29032;56.028;92.904;2022-08-16T12:40:48;98908.97;;;12.05;63.67
42887;BME280;29032;56.028;92.904;2022-08-16T12:45:52;98903.38;;;12.05;63.89
42887;BME280;29032;56.028;92.904;2022-08-16T12:50:56;98908.97;;;12.05;63.96
42887;BME280;29032;56.028;92.904;2022-08-16T12:55:59;98922.56;;;12.01;63.98
42887;BME280;29032;56.028;92.904;2022-08-16T13:01:01;98924.59;;;11.93;64.02
42887;BME280;29032;56.028;92.904;2022-08-16T13:06:05;98930.72;;;11.92;64.42
42887;BME280;29032;56.028;92.904;2022-08-16T13:11:07;98933.69;;;11.86;64.65
42887;BME280;29032;56.028;92.904;2022-08-16T13:16:09;98943.00;;;11.89;64.04
42887;BME280;29032;56.028;92.904;2022-08-16T13:21:13;98942.44;;;11.90;64.64
42887;BME280;29032;56.028;92.904;2022-08-16T13:26:15;98948.56;;;11.81;64.02
42887;BME280;29032;56.028;92.904;2022-08-16T13:31:17;98946.88;;;11.78;64.27
42887;BME280;29032;56.028;92.904;2022-08-16T13:36:21;98952.66;;;11.80;64.11
42887;BME280;29032;56.028;92.904;2022-08-16T13:41:23;98951.13;;;11.71;64.61
42887;BME280;29032;56.028;92.904;2022-08-16T13:46:25;98964.16;;;11.69;64.87
42887;BME280;29032;56.028;92.904;2022-08-16T13:51:30;98965.28;;;11.73;64.79
42887;BME280;29032;56.028;92.904;2022-08-16T13:56:34;98971.97;;;11.70;65.37
42887;BME280;29032;56.028;92.904;2022-08-16T14:01:37;98971.53;;;11.59;64.64
42887;BME280;29032;56.028;92.904;2022-08-16T14:06:40;98976.94;;;11.56;65.47
42887;BME280;29032;56.028;92.904;2022-08-16T14:11:42;98972.28;;;11.51;64.66
42887;BME280;29032;56.028;92.904;2022-08-16T14:16:45;98967.81;;;11.48;66.08
42887;BME280;29032;56.028;92.904;2022-08-16T14:21:48;98978.81;;;11.62;65.83
42887;BME280;29032;56.028;92.904;2022-08-16T14:26:50;98981.97;;;11.66;64.76
42887;BME280;29032;56.028;92.904;2022-08-16T14:31:56;98984.97;;;11.68;64.70
42887;BME280;29032;56.028;92.904;2022-08-16T14:37:00;98976.78;;;11.62;65.23
42887;BME280;29032;56.028;92.904;2022-08-16T14:42:05;98984.22;;;11.60;65.12
42887;BME280;29032;56.028;92.904;2022-08-16T14:47:07;98973.03;;;11.52;65.01
42887;BME280;29032;56.028;92.904;2022-08-16T14:52:13;98974.16;;;11.56;65.42
42887;BME280;29032;56.028;92.904;2022-08-16T14:57:15;98974.19;;;11.79;63.70
42887;BME280;29032;56.028;92.904;2022-08-16T15:02:19;98976.94;;;11.56;64.55
42887;BME280;29032;56.028;92.904;2022-08-16T15:07:23;98979.34;;;11.52;64.66
42887;BME280;29032;56.028;92.904;2022-08-16T15:12:26;98983.22;;;11.49;64.86
42887;BME280;29032;56.028;92.904;2022-08-16T15:17:28;98996.78;;;11.45;64.70
42887;BME280;29032;56.028;92.904;2022-08-16T15:22:34;98990.28;;;11.50;65.03
42887;BME280;29032;56.028;92.904;2022-08-16T15:27:37;98989.91;;;11.46;64.69
42887;BME280;29032;56.028;92.904;2022-08-16T15:32:40;98991.97;;;11.46;65.22
42887;BME280;29032;56.028;92.904;2022-08-16T15:37:43;98995.69;;;11.48;64.83
42887;BME280;29032;56.028;92.904;2022-08-16T15:42:48;98999.97;;;11.49;65.05
42887;BME280;29032;56.028;92.904;2022-08-16T15:47:51;98993.03;;;11.43;64.99
42887;BME280;29032;56.028;92.904;2022-08-16T15:52:56;98995.69;;;11.48;65.09
42887;BME280;29032;56.028;92.904;2022-08-16T15:58:00;98993.41;;;11.39;64.94
42887;BME280;29032;56.028;92.904;2022-08-16T16:03:05;98992.47;;;11.44;64.96
42887;BME280;29032;56.028;92.904;2022-08-16T16:08:09;98989.69;;;11.44;65.70
42887;BME280;29032;56.028;92.904;2022-08-16T16:13:12;98993.78;;;11.43;64.96
42887;BME280;29032;56.028;92.904;2022-08-16T16:18:15;98996.56;;;11.43;64.35
42887;BME280;29032;56.028;92.904;2022-08-16T16:23:21;98990.06;;;11.41;64.96
42887;BME280;29032;56.028;92.904;2022-08-16T16:28:25;99000.47;;;11.40;64.45
42887;BME280;29032;56.028;92.904;2022-08-16T16:33:29;98996.94;;;11.40;64.09
42887;BME280;29032;56.028;92.904;2022-08-16T16:38:33;99001.59;;;11.45;63.82
42887;BME280;29032;56.028;92.904;2022-08-16T16:43:36;99005.84;;;11.38;64.02
42887;BME280;29032;56.028;92.904;2022-08-16T16:48:38;99002.31;;;11.38;64.77
42887;BME280;29032;56.028;92.904;2022-08-16T16:53:43;99005.13;;;11.45;64.00
42887;BME280;29032;56.028;92.904;2022-08-16T16:58:46;99002.13;;;11.43;64.64
42887;BME280;29032;56.028;92.904;2022-08-16T17:03:48;99014.75;;;11.44;64.20
42887;BME280;29032;56.028;92.904;2022-08-16T17:08:52;99016.88;;;11.51;63.94
42887;BME280;29032;56.028;92.904;2022-08-16T17:13:55;99025.44;;;11.53;63.94
42887;BME280;29032;56.028;92.904;2022-08-16T17:18:57;99026.53;;;11.50;64.47
42887;BME280;29032;56.028;92.904;2022-08-16T17:24:01;99020.06;;;11.55;63.95
42887;BME280;29032;56.028;92.904;2022-08-16T17:29:04;99017.97;;;11.48;64.08
42887;BME280;29032;56.028;92.904;2022-08-16T17:34:06;99017.38;;;11.42;64.49
42887;BME280;29032;56.028;92.904;2022-08-16T17:39:09;99020.59;;;11.46;65.47
42887;BME280;29032;56.028;92.904;2022-08-16T17:44:11;99023.91;;;11.45;65.00
42887;BME280;29032;56.028;92.904;2022-08-16T17:49:14;99024.97;;;11.42;64.66
42887;BME280;29032;56.028;92.904;2022-08-16T17:54:17;99016.81;;;11.44;65.07
42887;BME280;29032;56.028;92.904;2022-08-16T17:59:20;99020.53;;;11.39;65.24
42887;BME280;29032;56.028;92.904;2022-08-16T18:04:22;99015.28;;;11.35;64.97
42887;BME280;29032;56.028;92.904;2022-08-16T18:09:26;99009.72;;;11.35;65.87
42887;BME280;29032;56.028;92.904;2022-08-16T18:14:28;99006.34;;;11.29;65.20
42887;BME280;29032;56.028;92.904;2022-08-16T18:19:30;99013.03;;;11.26;65.25
42887;BME280;29032;56.028;92.904;2022-08-16T18:24:34;99009.13;;;11.29;65.23
